KFCS/FCS METAR and TAF weather

Enter ICAO airport designator
Station Type Date Time Source
KFCS METAR 2024/06/16 00:30 UTC NOAA

KFCS 160030Z 23003KT 10SM -TSRA FEW060 BKN120 BKN150 28/03 A2987 RMK AO2A RAB30 SLP044 $


Station Type Date Time Source
KFCS Decoded METAR 2024/06/16 00:30 UTC NOAA

Fort Carson, CO, United States (KFCS) 38-42N 104-46W 1789M
Jun 15, 2024 - 08:30 PM EDT / 2024.06.16 0030 UTC
Wind: from the SW (230 degrees) at 3 MPH (3 KT):0
Visibility: 10 mile(s):0
Sky conditions: mostly cloudy
Weather: light rain with thunder
Temperature: 82 F (28 C)
Dew Point: 37 F (3 C)
Relative Humidity: 20%
Pressure (altimeter): 29.87 in. Hg (1011 hPa)
ob: KFCS 160030Z 23003KT 10SM -TSRA FEW060 BKN120 BKN150 28/03 A2987 RMK AO2A RAB30 SLP044
cycle: 0

Station Type Date Time Source
KFCS TAF 2024/06/15 05:58 UTC NOAA